sensor_id;sensor_type;location;lat;lon;timestamp;temperature;humidity
3876;DHT22;1953;51.222;6.624;2023-07-20T00:04:06;19.20;1.00
3876;DHT22;1953;51.222;6.624;2023-07-20T00:08:49;19.20;1.00
3876;DHT22;1953;51.222;6.624;2023-07-20T00:15:17;19.20;1.00
3876;DHT22;1953;51.222;6.624;2023-07-20T00:20:00;19.10;1.00
3876;DHT22;1953;51.222;6.624;2023-07-20T00:24:42;19.20;1.00
3876;DHT22;1953;51.222;6.624;2023-07-20T00:29:25;19.30;1.00
3876;DHT22;1953;51.222;6.624;2023-07-20T00:34:09;19.30;1.00
3876;DHT22;1953;51.222;6.624;2023-07-20T00:38:51;19.20;1.00
3876;DHT22;1953;51.222;6.624;2023-07-20T00:43:34;19.10;1.00
3876;DHT22;1953;51.222;6.624;2023-07-20T00:48:17;19.00;1.00
3876;DHT22;1953;51.222;6.624;2023-07-20T00:53:02;18.90;1.00
3876;DHT22;1953;51.222;6.624;2023-07-20T00:57:46;18.80;1.00
3876;DHT22;1953;51.222;6.624;2023-07-20T01:02:29;18.80;1.00
3876;DHT22;1953;51.222;6.624;2023-07-20T01:07:17;18.80;1.00
3876;DHT22;1953;51.222;6.624;2023-07-20T01:12:08;18.80;1.00
3876;DHT22;1953;51.222;6.624;2023-07-20T01:16:52;18.80;1.00
3876;DHT22;1953;51.222;6.624;2023-07-20T01:21:41;18.70;1.00
3876;DHT22;1953;51.222;6.624;2023-07-20T01:26:38;18.60;1.00
3876;DHT22;1953;51.222;6.624;2023-07-20T01:31:30;18.60;1.00
3876;DHT22;1953;51.222;6.624;2023-07-20T01:36:14;18.50;1.00
3876;DHT22;1953;51.222;6.624;2023-07-20T01:40:59;18.50;1.00
3876;DHT22;1953;51.222;6.624;2023-07-20T01:45:41;18.40;1.00
3876;DHT22;1953;51.222;6.624;2023-07-20T01:50:25;18.40;1.00
3876;DHT22;1953;51.222;6.624;2023-07-20T01:55:08;18.40;1.00
3876;DHT22;1953;51.222;6.624;2023-07-20T01:59:51;18.30;1.00
3876;DHT22;1953;51.222;6.624;2023-07-20T02:04:33;18.20;1.00
3876;DHT22;1953;51.222;6.624;2023-07-20T02:09:17;18.20;1.00
3876;DHT22;1953;51.222;6.624;2023-07-20T02:14:00;18.20;1.00
3876;DHT22;1953;51.222;6.624;2023-07-20T02:18:42;18.20;1.00
3876;DHT22;1953;51.222;6.624;2023-07-20T02:23:25;18.20;1.00
3876;DHT22;1953;51.222;6.624;2023-07-20T02:28:08;18.00;1.00
3876;DHT22;1953;51.222;6.624;2023-07-20T02:32:51;18.00;1.00
3876;DHT22;1953;51.222;6.624;2023-07-20T02:37:34;18.00;1.00
3876;DHT22;1953;51.222;6.624;2023-07-20T02:42:16;18.00;1.00
3876;DHT22;1953;51.222;6.624;2023-07-20T02:47:00;17.90;1.00
3876;DHT22;1953;51.222;6.624;2023-07-20T02:51:43;17.90;1.00
3876;DHT22;1953;51.222;6.624;2023-07-20T02:56:26;17.80;1.00
3876;DHT22;1953;51.222;6.624;2023-07-20T03:01:08;17.70;1.00
3876;DHT22;1953;51.222;6.624;2023-07-20T03:05:52;17.60;1.00
3876;DHT22;1953;51.222;6.624;2023-07-20T03:10:39;17.60;1.00
3876;DHT22;1953;51.222;6.624;2023-07-20T03:15:22;17.50;1.00
3876;DHT22;1953;51.222;6.624;2023-07-20T03:20:05;17.60;1.00
3876;DHT22;1953;51.222;6.624;2023-07-20T03:24:52;17.50;1.00
3876;DHT22;1953;51.222;6.624;2023-07-20T03:29:35;17.50;1.00
3876;DHT22;1953;51.222;6.624;2023-07-20T03:34:18;17.40;1.00
3876;DHT22;1953;51.222;6.624;2023-07-20T03:39:00;17.40;1.00
3876;DHT22;1953;51.222;6.624;2023-07-20T03:43:45;17.40;1.00
3876;DHT22;1953;51.222;6.624;2023-07-20T03:48:28;17.40;1.00
3876;DHT22;1953;51.222;6.624;2023-07-20T03:53:11;17.40;1.00
3876;DHT22;1953;51.222;6.624;2023-07-20T03:57:53;17.40;1.00
3876;DHT22;1953;51.222;6.624;2023-07-20T04:02:37;17.40;1.00
3876;DHT22;1953;51.222;6.624;2023-07-20T04:07:20;17.50;1.00
3876;DHT22;1953;51.222;6.624;2023-07-20T04:12:03;17.60;1.00
3876;DHT22;1953;51.222;6.624;2023-07-20T04:16:46;17.70;1.00
3876;DHT22;1953;51.222;6.624;2023-07-20T04:21:31;17.70;1.00
3876;DHT22;1953;51.222;6.624;2023-07-20T04:26:14;17.80;1.00
3876;DHT22;1953;51.222;6.624;2023-07-20T04:31:09;17.80;1.00
3876;DHT22;1953;51.222;6.624;2023-07-20T04:35:54;17.90;1.00
3876;DHT22;1953;51.222;6.624;2023-07-20T04:40:38;18.00;1.00
3876;DHT22;1953;51.222;6.624;2023-07-20T04:45:20;18.00;1.00
3876;DHT22;1953;51.222;6.624;2023-07-20T04:50:05;18.10;1.00
3876;DHT22;1953;51.222;6.624;2023-07-20T04:54:48;18.10;1.00
3876;DHT22;1953;51.222;6.624;2023-07-20T04:59:34;18.10;1.00
3876;DHT22;1953;51.222;6.624;2023-07-20T05:04:17;18.20;1.00
3876;DHT22;1953;51.222;6.624;2023-07-20T05:09:00;18.20;1.00
3876;DHT22;1953;51.222;6.624;2023-07-20T05:13:43;18.20;1.00
3876;DHT22;1953;51.222;6.624;2023-07-20T05:18:27;18.20;1.00
3876;DHT22;1953;51.222;6.624;2023-07-20T05:23:10;18.20;1.00
3876;DHT22;1953;51.222;6.624;2023-07-20T05:27:52;18.10;1.00
3876;DHT22;1953;51.222;6.624;2023-07-20T05:32:36;18.20;1.00
3876;DHT22;1953;51.222;6.624;2023-07-20T05:37:20;18.30;1.00
3876;DHT22;1953;51.222;6.624;2023-07-20T05:42:03;18.30;1.00
3876;DHT22;1953;51.222;6.624;2023-07-20T05:46:45;18.40;1.00
3876;DHT22;1953;51.222;6.624;2023-07-20T05:51:28;18.40;1.00
3876;DHT22;1953;51.222;6.624;2023-07-20T05:56:13;18.50;1.00
3876;DHT22;1953;51.222;6.624;2023-07-20T06:00:56;18.60;1.00
3876;DHT22;1953;51.222;6.624;2023-07-20T06:05:39;18.70;1.00
3876;DHT22;1953;51.222;6.624;2023-07-20T06:10:21;18.60;1.00
3876;DHT22;1953;51.222;6.624;2023-07-20T06:15:16;18.50;1.00
3876;DHT22;1953;51.222;6.624;2023-07-20T06:20:07;18.60;1.00
3876;DHT22;1953;51.222;6.624;2023-07-20T06:24:50;18.50;1.00
3876;DHT22;1953;51.222;6.624;2023-07-20T06:29:32;18.40;1.00
3876;DHT22;1953;51.222;6.624;2023-07-20T06:34:16;18.40;1.00
3876;DHT22;1953;51.222;6.624;2023-07-20T06:38:59;18.50;1.00
3876;DHT22;1953;51.222;6.624;2023-07-20T06:43:41;18.60;1.00
3876;DHT22;1953;51.222;6.624;2023-07-20T06:48:24;18.70;1.00
3876;DHT22;1953;51.222;6.624;2023-07-20T06:53:08;18.70;1.00
3876;DHT22;1953;51.222;6.624;2023-07-20T06:57:50;19.00;1.00
3876;DHT22;1953;51.222;6.624;2023-07-20T07:02:33;19.10;1.00
3876;DHT22;1953;51.222;6.624;2023-07-20T07:07:16;19.20;1.00
3876;DHT22;1953;51.222;6.624;2023-07-20T07:11:59;19.40;1.00
3876;DHT22;1953;51.222;6.624;2023-07-20T07:16:42;19.70;1.00
3876;DHT22;1953;51.222;6.624;2023-07-20T07:21:25;19.70;1.00
3876;DHT22;1953;51.222;6.624;2023-07-20T07:26:07;19.60;1.00
3876;DHT22;1953;51.222;6.624;2023-07-20T07:30:51;19.50;1.00
3876;DHT22;1953;51.222;6.624;2023-07-20T07:35:34;19.40;1.00
3876;DHT22;1953;51.222;6.624;2023-07-20T07:40:16;19.30;1.00
3876;DHT22;1953;51.222;6.624;2023-07-20T07:44:59;19.30;1.00
3876;DHT22;1953;51.222;6.624;2023-07-20T07:49:43;19.50;1.00
3876;DHT22;1953;51.222;6.624;2023-07-20T07:54:25;19.60;1.00
3876;DHT22;1953;51.222;6.624;2023-07-20T07:59:08;19.80;1.00
3876;DHT22;1953;51.222;6.624;2023-07-20T08:03:51;20.00;1.00
3876;DHT22;1953;51.222;6.624;2023-07-20T08:08:34;20.10;1.00
3876;DHT22;1953;51.222;6.624;2023-07-20T08:13:17;20.10;1.00
3876;DHT22;1953;51.222;6.624;2023-07-20T08:18:00;20.40;1.00
3876;DHT22;1953;51.222;6.624;2023-07-20T08:22:42;20.60;1.00
3876;DHT22;1953;51.222;6.624;2023-07-20T08:27:26;20.60;1.00
3876;DHT22;1953;51.222;6.624;2023-07-20T08:32:09;20.50;1.00
3876;DHT22;1953;51.222;6.624;2023-07-20T08:36:51;20.50;1.00
3876;DHT22;1953;51.222;6.624;2023-07-20T08:41:34;20.60;1.00
3876;DHT22;1953;51.222;6.624;2023-07-20T08:46:20;20.60;1.00
3876;DHT22;1953;51.222;6.624;2023-07-20T08:51:04;20.60;1.00
3876;DHT22;1953;51.222;6.624;2023-07-20T08:55:49;20.70;1.00
3876;DHT22;1953;51.222;6.624;2023-07-20T09:00:32;20.70;1.00
3876;DHT22;1953;51.222;6.624;2023-07-20T09:05:16;20.90;1.00
3876;DHT22;1953;51.222;6.624;2023-07-20T09:09:59;21.10;1.00
3876;DHT22;1953;51.222;6.624;2023-07-20T09:14:46;21.30;1.00
3876;DHT22;1953;51.222;6.624;2023-07-20T09:19:29;21.30;1.00
3876;DHT22;1953;51.222;6.624;2023-07-20T09:24:14;21.40;1.00
3876;DHT22;1953;51.222;6.624;2023-07-20T09:28:56;21.60;1.00
3876;DHT22;1953;51.222;6.624;2023-07-20T09:33:39;21.60;1.00
3876;DHT22;1953;51.222;6.624;2023-07-20T09:38:21;21.60;1.00
3876;DHT22;1953;51.222;6.624;2023-07-20T09:43:08;21.70;1.00
3876;DHT22;1953;51.222;6.624;2023-07-20T09:47:50;21.80;1.00
3876;DHT22;1953;51.222;6.624;2023-07-20T09:52:34;21.90;1.00
3876;DHT22;1953;51.222;6.624;2023-07-20T09:57:18;21.90;1.00
3876;DHT22;1953;51.222;6.624;2023-07-20T10:02:07;21.90;1.00
3876;DHT22;1953;51.222;6.624;2023-07-20T10:06:55;22.10;1.00
3876;DHT22;1953;51.222;6.624;2023-07-20T10:11:42;21.90;1.00
3876;DHT22;1953;51.222;6.624;2023-07-20T10:16:29;21.90;1.00
3876;DHT22;1953;51.222;6.624;2023-07-20T10:21:13;22.00;1.00
3876;DHT22;1953;51.222;6.624;2023-07-20T10:25:57;22.40;1.00
3876;DHT22;1953;51.222;6.624;2023-07-20T10:30:41;22.60;1.00
3876;DHT22;1953;51.222;6.624;2023-07-20T10:35:24;23.00;1.00
3876;DHT22;1953;51.222;6.624;2023-07-20T10:40:30;22.40;1.00
3876;DHT22;1953;51.222;6.624;2023-07-20T10:45:13;22.60;1.00
3876;DHT22;1953;51.222;6.624;2023-07-20T10:50:00;22.80;1.00
3876;DHT22;1953;51.222;6.624;2023-07-20T10:54:48;23.00;1.00
3876;DHT22;1953;51.222;6.624;2023-07-20T10:59:39;23.30;1.00
3876;DHT22;1953;51.222;6.624;2023-07-20T11:04:38;23.30;1.00
3876;DHT22;1953;51.222;6.624;2023-07-20T11:09:22;23.70;1.00
3876;DHT22;1953;51.222;6.624;2023-07-20T11:14:08;23.80;1.00
3876;DHT22;1953;51.222;6.624;2023-07-20T11:18:52;23.50;1.00
3876;DHT22;1953;51.222;6.624;2023-07-20T11:23:34;23.70;1.00
3876;DHT22;1953;51.222;6.624;2023-07-20T11:28:20;23.90;1.00
3876;DHT22;1953;51.222;6.624;2023-07-20T11:33:02;23.80;1.00
3876;DHT22;1953;51.222;6.624;2023-07-20T11:37:46;23.60;1.00
3876;DHT22;1953;51.222;6.624;2023-07-20T11:42:29;23.50;1.00
3876;DHT22;1953;51.222;6.624;2023-07-20T11:47:11;23.70;1.00
3876;DHT22;1953;51.222;6.624;2023-07-20T11:51:54;24.10;1.00
3876;DHT22;1953;51.222;6.624;2023-07-20T11:56:41;24.20;1.00
3876;DHT22;1953;51.222;6.624;2023-07-20T12:01:23;24.50;1.00
3876;DHT22;1953;51.222;6.624;2023-07-20T12:06:07;24.40;1.00
3876;DHT22;1953;51.222;6.624;2023-07-20T12:10:50;24.70;1.00
3876;DHT22;1953;51.222;6.624;2023-07-20T12:16:19;24.60;1.00
3876;DHT22;1953;51.222;6.624;2023-07-20T12:21:02;24.70;1.00
3876;DHT22;1953;51.222;6.624;2023-07-20T12:25:46;24.80;1.00
3876;DHT22;1953;51.222;6.624;2023-07-20T12:30:29;25.30;1.00
3876;DHT22;1953;51.222;6.624;2023-07-20T12:35:13;26.10;1.00
3876;DHT22;1953;51.222;6.624;2023-07-20T12:39:57;26.70;1.00
3876;DHT22;1953;51.222;6.624;2023-07-20T12:44:39;27.00;1.00
3876;DHT22;1953;51.222;6.624;2023-07-20T12:49:22;26.60;1.00
3876;DHT22;1953;51.222;6.624;2023-07-20T12:54:05;26.10;1.00
3876;DHT22;1953;51.222;6.624;2023-07-20T12:58:48;25.80;1.00
3876;DHT22;1953;51.222;6.624;2023-07-20T13:03:31;26.70;1.00
3876;DHT22;1953;51.222;6.624;2023-07-20T13:08:14;27.30;1.00
3876;DHT22;1953;51.222;6.624;2023-07-20T13:12:58;27.10;1.00
3876;DHT22;1953;51.222;6.624;2023-07-20T13:17:40;26.60;1.00
3876;DHT22;1953;51.222;6.624;2023-07-20T13:22:23;26.20;1.00
3876;DHT22;1953;51.222;6.624;2023-07-20T13:27:05;25.90;1.00
3876;DHT22;1953;51.222;6.624;2023-07-20T13:31:49;26.30;1.00
3876;DHT22;1953;51.222;6.624;2023-07-20T13:36:32;25.80;1.00
3876;DHT22;1953;51.222;6.624;2023-07-20T13:41:14;25.80;1.00
3876;DHT22;1953;51.222;6.624;2023-07-20T13:45:57;25.60;1.00
3876;DHT22;1953;51.222;6.624;2023-07-20T13:50:41;25.50;1.00
3876;DHT22;1953;51.222;6.624;2023-07-20T13:55:23;25.30;1.00
3876;DHT22;1953;51.222;6.624;2023-07-20T14:00:07;25.20;1.00
3876;DHT22;1953;51.222;6.624;2023-07-20T14:04:52;25.30;1.00
3876;DHT22;1953;51.222;6.624;2023-07-20T14:09:38;25.60;1.00
3876;DHT22;1953;51.222;6.624;2023-07-20T14:14:20;25.60;1.00
3876;DHT22;1953;51.222;6.624;2023-07-20T14:19:03;26.20;1.00
3876;DHT22;1953;51.222;6.624;2023-07-20T14:23:48;26.00;1.00
3876;DHT22;1953;51.222;6.624;2023-07-20T14:28:32;26.00;1.00
3876;DHT22;1953;51.222;6.624;2023-07-20T14:33:14;25.80;1.00
3876;DHT22;1953;51.222;6.624;2023-07-20T14:37:57;26.60;1.00
3876;DHT22;1953;51.222;6.624;2023-07-20T14:42:39;26.90;1.00
3876;DHT22;1953;51.222;6.624;2023-07-20T14:47:23;26.80;1.00
3876;DHT22;1953;51.222;6.624;2023-07-20T14:52:06;26.50;1.00
3876;DHT22;1953;51.222;6.624;2023-07-20T15:55:54;30.10;1.00
3876;DHT22;1953;51.222;6.624;2023-07-20T16:00:37;30.80;1.00
3876;DHT22;1953;51.222;6.624;2023-07-20T16:05:19;31.70;1.00
3876;DHT22;1953;51.222;6.624;2023-07-20T16:10:02;32.10;1.00
3876;DHT22;1953;51.222;6.624;2023-07-20T16:14:48;31.80;1.00
3876;DHT22;1953;51.222;6.624;2023-07-20T16:19:30;30.90;1.00
3876;DHT22;1953;51.222;6.624;2023-07-20T16:24:13;29.90;1.00
3876;DHT22;1953;51.222;6.624;2023-07-20T16:28:55;29.20;1.00
3876;DHT22;1953;51.222;6.624;2023-07-20T16:33:42;29.10;1.00
3876;DHT22;1953;51.222;6.624;2023-07-20T16:38:24;28.70;1.00
3876;DHT22;1953;51.222;6.624;2023-07-20T16:43:06;28.60;1.00
3876;DHT22;1953;51.222;6.624;2023-07-20T16:47:49;28.30;1.00
3876;DHT22;1953;51.222;6.624;2023-07-20T16:52:33;27.90;1.00
3876;DHT22;1953;51.222;6.624;2023-07-20T16:57:15;27.70;1.00
3876;DHT22;1953;51.222;6.624;2023-07-20T17:01:58;28.20;1.00
3876;DHT22;1953;51.222;6.624;2023-07-20T17:06:40;28.10;1.00
3876;DHT22;1953;51.222;6.624;2023-07-20T17:10:57;28.00;1.00
3876;DHT22;1953;51.222;6.624;2023-07-20T17:15:40;27.70;1.00
3876;DHT22;1953;51.222;6.624;2023-07-20T17:20:22;27.30;1.00
3876;DHT22;1953;51.222;6.624;2023-07-20T17:25:05;27.10;1.00
3876;DHT22;1953;51.222;6.624;2023-07-20T17:29:49;27.50;1.00
3876;DHT22;1953;51.222;6.624;2023-07-20T17:34:32;27.50;1.00
3876;DHT22;1953;51.222;6.624;2023-07-20T17:39:15;27.50;1.00
3876;DHT22;1953;51.222;6.624;2023-07-20T17:43:57;27.30;1.00
3876;DHT22;1953;51.222;6.624;2023-07-20T17:48:41;27.70;1.00
3876;DHT22;1953;51.222;6.624;2023-07-20T17:53:24;27.70;1.00
3876;DHT22;1953;51.222;6.624;2023-07-20T17:58:07;27.30;1.00
3876;DHT22;1953;51.222;6.624;2023-07-20T18:02:50;26.90;1.00
3876;DHT22;1953;51.222;6.624;2023-07-20T18:07:34;26.70;1.00
3876;DHT22;1953;51.222;6.624;2023-07-20T18:12:17;26.50;1.00
3876;DHT22;1953;51.222;6.624;2023-07-20T18:16:59;26.30;1.00
3876;DHT22;1953;51.222;6.624;2023-07-20T18:21:42;26.00;1.00
3876;DHT22;1953;51.222;6.624;2023-07-20T18:26:26;25.80;1.00
3876;DHT22;1953;51.222;6.624;2023-07-20T18:31:08;25.70;1.00
3876;DHT22;1953;51.222;6.624;2023-07-20T18:35:52;25.50;1.00
3876;DHT22;1953;51.222;6.624;2023-07-20T18:40:35;25.30;1.00
3876;DHT22;1953;51.222;6.624;2023-07-20T18:45:19;25.10;1.00
3876;DHT22;1953;51.222;6.624;2023-07-20T18:50:02;25.00;1.00
3876;DHT22;1953;51.222;6.624;2023-07-20T18:54:45;24.90;1.00
3876;DHT22;1953;51.222;6.624;2023-07-20T18:59:28;24.90;1.00
3876;DHT22;1953;51.222;6.624;2023-07-20T19:04:11;24.80;1.00
3876;DHT22;1953;51.222;6.624;2023-07-20T19:08:54;24.80;1.00
3876;DHT22;1953;51.222;6.624;2023-07-20T19:13:37;24.70;1.00
3876;DHT22;1953;51.222;6.624;2023-07-20T19:18:19;24.60;1.00
3876;DHT22;1953;51.222;6.624;2023-07-20T19:23:03;24.50;1.00
3876;DHT22;1953;51.222;6.624;2023-07-20T19:27:46;24.40;1.00
3876;DHT22;1953;51.222;6.624;2023-07-20T19:32:29;24.30;1.00
3876;DHT22;1953;51.222;6.624;2023-07-20T19:37:11;24.10;1.00
3876;DHT22;1953;51.222;6.624;2023-07-20T19:41:55;24.10;1.00
3876;DHT22;1953;51.222;6.624;2023-07-20T19:46:38;24.00;1.00
3876;DHT22;1953;51.222;6.624;2023-07-20T19:51:21;23.80;1.00
3876;DHT22;1953;51.222;6.624;2023-07-20T19:56:04;23.70;1.00
3876;DHT22;1953;51.222;6.624;2023-07-20T20:00:49;23.60;1.00
3876;DHT22;1953;51.222;6.624;2023-07-20T20:05:33;23.60;1.00
3876;DHT22;1953;51.222;6.624;2023-07-20T20:10:16;23.40;1.00
3876;DHT22;1953;51.222;6.624;2023-07-20T20:14:59;23.30;1.00
3876;DHT22;1953;51.222;6.624;2023-07-20T20:19:43;23.00;1.00
3876;DHT22;1953;51.222;6.624;2023-07-20T20:24:26;22.70;1.00
3876;DHT22;1953;51.222;6.624;2023-07-20T20:29:08;22.30;1.00
3876;DHT22;1953;51.222;6.624;2023-07-20T20:33:51;21.70;1.00
3876;DHT22;1953;51.222;6.624;2023-07-20T20:38:35;21.30;1.00
3876;DHT22;1953;51.222;6.624;2023-07-20T20:43:17;21.00;1.00
3876;DHT22;1953;51.222;6.624;2023-07-20T20:48:00;20.70;1.00
3876;DHT22;1953;51.222;6.624;2023-07-20T20:52:47;20.50;1.00
3876;DHT22;1953;51.222;6.624;2023-07-20T20:57:31;20.40;1.00
3876;DHT22;1953;51.222;6.624;2023-07-20T21:02:14;20.30;1.00
3876;DHT22;1953;51.222;6.624;2023-07-20T21:06:59;20.10;1.00
3876;DHT22;1953;51.222;6.624;2023-07-20T21:11:41;19.90;1.00
3876;DHT22;1953;51.222;6.624;2023-07-20T21:16:25;19.90;1.00
3876;DHT22;1953;51.222;6.624;2023-07-20T21:21:08;20.00;1.00
3876;DHT22;1953;51.222;6.624;2023-07-20T21:25:50;19.90;1.00
3876;DHT22;1953;51.222;6.624;2023-07-20T21:30:33;19.90;1.00
3876;DHT22;1953;51.222;6.624;2023-07-20T21:35:17;19.80;1.00
3876;DHT22;1953;51.222;6.624;2023-07-20T21:39:59;19.80;1.00
3876;DHT22;1953;51.222;6.624;2023-07-20T21:44:42;19.70;1.00
3876;DHT22;1953;51.222;6.624;2023-07-20T21:49:24;19.60;1.00
3876;DHT22;1953;51.222;6.624;2023-07-20T21:54:08;19.60;1.00
3876;DHT22;1953;51.222;6.624;2023-07-20T21:58:51;19.50;1.00
3876;DHT22;1953;51.222;6.624;2023-07-20T22:03:34;19.60;1.00
3876;DHT22;1953;51.222;6.624;2023-07-20T22:08:16;19.50;1.00
3876;DHT22;1953;51.222;6.624;2023-07-20T22:13:00;19.50;1.00
3876;DHT22;1953;51.222;6.624;2023-07-20T22:17:42;19.50;1.00
3876;DHT22;1953;51.222;6.624;2023-07-20T22:22:25;19.50;1.00
3876;DHT22;1953;51.222;6.624;2023-07-20T22:27:07;19.60;1.00
3876;DHT22;1953;51.222;6.624;2023-07-20T22:31:52;19.60;1.00
3876;DHT22;1953;51.222;6.624;2023-07-20T22:36:34;19.60;1.00
3876;DHT22;1953;51.222;6.624;2023-07-20T22:41:17;19.60;1.00
3876;DHT22;1953;51.222;6.624;2023-07-20T22:45:59;19.60;1.00
3876;DHT22;1953;51.222;6.624;2023-07-20T22:50:43;19.60;1.00
3876;DHT22;1953;51.222;6.624;2023-07-20T22:55:27;19.60;1.00
3876;DHT22;1953;51.222;6.624;2023-07-20T23:00:10;19.60;1.00
3876;DHT22;1953;51.222;6.624;2023-07-20T23:04:54;19.20;1.00
3876;DHT22;1953;51.222;6.624;2023-07-20T23:09:38;18.90;1.00
3876;DHT22;1953;51.222;6.624;2023-07-20T23:14:22;18.60;1.00
3876;DHT22;1953;51.222;6.624;2023-07-20T23:19:04;18.60;1.00
3876;DHT22;1953;51.222;6.624;2023-07-20T23:23:47;18.50;1.00
3876;DHT22;1953;51.222;6.624;2023-07-20T23:28:32;18.40;1.00
3876;DHT22;1953;51.222;6.624;2023-07-20T23:33:15;18.40;1.00
3876;DHT22;1953;51.222;6.624;2023-07-20T23:37:58;18.30;1.00
3876;DHT22;1953;51.222;6.624;2023-07-20T23:42:42;18.30;1.00
3876;DHT22;1953;51.222;6.624;2023-07-20T23:47:26;18.40;1.00
3876;DHT22;1953;51.222;6.624;2023-07-20T23:52:09;18.40;1.00
3876;DHT22;1953;51.222;6.624;2023-07-20T23:56:51;18.30;1.00
